sensor_id;sensor_type;location;lat;lon;timestamp;P1;durP1;ratioP1;P2;durP2;ratioP2
31584;SDS011;18191;51.288;12.390;2023-06-14T00:00:18;1.70;;;1.20;;
31584;SDS011;18191;51.288;12.390;2023-06-14T00:05:10;6.38;;;1.45;;
31584;SDS011;18191;51.288;12.390;2023-06-14T00:10:05;5.15;;;1.60;;
31584;SDS011;18191;51.288;12.390;2023-06-14T00:14:55;6.30;;;1.80;;
31584;SDS011;18191;51.288;12.390;2023-06-14T00:19:45;2.83;;;1.67;;
31584;SDS011;18191;51.288;12.390;2023-06-14T00:24:36;4.13;;;1.80;;
31584;SDS011;18191;51.288;12.390;2023-06-14T00:29:26;3.60;;;1.73;;
31584;SDS011;18191;51.288;12.390;2023-06-14T00:34:16;18.70;;;2.67;;
31584;SDS011;18191;51.288;12.390;2023-06-14T00:39:07;7.20;;;2.10;;
31584;SDS011;18191;51.288;12.390;2023-06-14T00:43:57;2.70;;;1.70;;
31584;SDS011;18191;51.288;12.390;2023-06-14T00:48:48;5.45;;;1.98;;
31584;SDS011;18191;51.288;12.390;2023-06-14T00:53:38;11.30;;;2.80;;
31584;SDS011;18191;51.288;12.390;2023-06-14T00:58:29;3.33;;;1.75;;
31584;SDS011;18191;51.288;12.390;2023-06-14T01:03:22;4.47;;;1.60;;
31584;SDS011;18191;51.288;12.390;2023-06-14T01:18:05;4.95;;;1.70;;
31584;SDS011;18191;51.288;12.390;2023-06-14T01:22:55;3.83;;;2.08;;
31584;SDS011;18191;51.288;12.390;2023-06-14T01:28:05;2.13;;;1.57;;
31584;SDS011;18191;51.288;12.390;2023-06-14T01:33:01;9.38;;;2.15;;
31584;SDS011;18191;51.288;12.390;2023-06-14T01:37:51;10.83;;;2.37;;
31584;SDS011;18191;51.288;12.390;2023-06-14T01:42:43;4.93;;;2.13;;
31584;SDS011;18191;51.288;12.390;2023-06-14T01:47:36;13.20;;;3.30;;
31584;SDS011;18191;51.288;12.390;2023-06-14T01:52:26;13.83;;;2.27;;
31584;SDS011;18191;51.288;12.390;2023-06-14T01:57:17;5.85;;;2.67;;
31584;SDS011;18191;51.288;12.390;2023-06-14T02:02:07;6.57;;;2.75;;
31584;SDS011;18191;51.288;12.390;2023-06-14T02:06:57;6.07;;;2.25;;
31584;SDS011;18191;51.288;12.390;2023-06-14T02:11:48;3.88;;;2.28;;
31584;SDS011;18191;51.288;12.390;2023-06-14T02:16:38;4.43;;;2.20;;
31584;SDS011;18191;51.288;12.390;2023-06-14T02:21:28;6.05;;;2.20;;
31584;SDS011;18191;51.288;12.390;2023-06-14T02:26:19;14.83;;;3.10;;
31584;SDS011;18191;51.288;12.390;2023-06-14T02:31:09;4.88;;;2.35;;
31584;SDS011;18191;51.288;12.390;2023-06-14T02:36:00;15.37;;;2.53;;
31584;SDS011;18191;51.288;12.390;2023-06-14T02:40:52;15.05;;;2.70;;
31584;SDS011;18191;51.288;12.390;2023-06-14T02:45:42;3.45;;;2.17;;
31584;SDS011;18191;51.288;12.390;2023-06-14T02:50:33;5.35;;;2.05;;
31584;SDS011;18191;51.288;12.390;2023-06-14T02:55:23;4.28;;;2.08;;
31584;SDS011;18191;51.288;12.390;2023-06-14T03:00:13;9.10;;;2.72;;
31584;SDS011;18191;51.288;12.390;2023-06-14T03:05:04;4.23;;;2.10;;
31584;SDS011;18191;51.288;12.390;2023-06-14T03:09:56;5.80;;;1.77;;
31584;SDS011;18191;51.288;12.390;2023-06-14T03:14:46;4.25;;;2.15;;
31584;SDS011;18191;51.288;12.390;2023-06-14T03:19:37;6.87;;;1.90;;
31584;SDS011;18191;51.288;12.390;2023-06-14T03:24:27;4.40;;;2.23;;
31584;SDS011;18191;51.288;12.390;2023-06-14T03:29:17;13.32;;;2.22;;
31584;SDS011;18191;51.288;12.390;2023-06-14T03:34:08;5.47;;;2.35;;
31584;SDS011;18191;51.288;12.390;2023-06-14T03:38:58;5.55;;;1.90;;
31584;SDS011;18191;51.288;12.390;2023-06-14T03:43:48;7.97;;;2.40;;
31584;SDS011;18191;51.288;12.390;2023-06-14T03:48:38;8.00;;;2.53;;
31584;SDS011;18191;51.288;12.390;2023-06-14T03:53:29;4.38;;;2.28;;
31584;SDS011;18191;51.288;12.390;2023-06-14T03:58:19;9.10;;;2.20;;
31584;SDS011;18191;51.288;12.390;2023-06-14T04:03:09;6.05;;;2.80;;
31584;SDS011;18191;51.288;12.390;2023-06-14T04:08:00;6.88;;;2.28;;
31584;SDS011;18191;51.288;12.390;2023-06-14T04:12:50;7.30;;;2.08;;
31584;SDS011;18191;51.288;12.390;2023-06-14T04:17:41;4.97;;;2.33;;
31584;SDS011;18191;51.288;12.390;2023-06-14T04:22:32;5.57;;;2.55;;
31584;SDS011;18191;51.288;12.390;2023-06-14T04:27:23;7.00;;;2.33;;
31584;SDS011;18191;51.288;12.390;2023-06-14T04:32:15;4.55;;;2.08;;
31584;SDS011;18191;51.288;12.390;2023-06-14T04:37:08;4.57;;;2.55;;
31584;SDS011;18191;51.288;12.390;2023-06-14T04:41:59;9.98;;;2.88;;
31584;SDS011;18191;51.288;12.390;2023-06-14T04:46:50;3.53;;;2.20;;
31584;SDS011;18191;51.288;12.390;2023-06-14T04:51:42;9.00;;;3.10;;
31584;SDS011;18191;51.288;12.390;2023-06-14T04:56:32;5.45;;;2.67;;
31584;SDS011;18191;51.288;12.390;2023-06-14T05:01:23;7.18;;;2.72;;
31584;SDS011;18191;51.288;12.390;2023-06-14T05:06:13;5.30;;;2.33;;
31584;SDS011;18191;51.288;12.390;2023-06-14T05:11:03;12.63;;;3.20;;
31584;SDS011;18191;51.288;12.390;2023-06-14T05:15:54;3.93;;;2.40;;
31584;SDS011;18191;51.288;12.390;2023-06-14T05:25:34;7.03;;;2.40;;
31584;SDS011;18191;51.288;12.390;2023-06-14T05:35:16;6.67;;;3.00;;
31584;SDS011;18191;51.288;12.390;2023-06-14T05:40:07;5.57;;;3.27;;
31584;SDS011;18191;51.288;12.390;2023-06-14T05:44:58;9.27;;;3.17;;
31584;SDS011;18191;51.288;12.390;2023-06-14T05:54:39;5.73;;;3.27;;
31584;SDS011;18191;51.288;12.390;2023-06-14T05:59:31;8.65;;;3.38;;
31584;SDS011;18191;51.288;12.390;2023-06-14T06:04:22;7.50;;;3.97;;
31584;SDS011;18191;51.288;12.390;2023-06-14T06:09:13;8.80;;;3.25;;
31584;SDS011;18191;51.288;12.390;2023-06-14T06:14:04;7.18;;;3.17;;
31584;SDS011;18191;51.288;12.390;2023-06-14T06:18:54;18.10;;;3.05;;
31584;SDS011;18191;51.288;12.390;2023-06-14T06:23:45;8.38;;;3.30;;
31584;SDS011;18191;51.288;12.390;2023-06-14T06:28:35;6.15;;;3.20;;
31584;SDS011;18191;51.288;12.390;2023-06-14T06:33:25;5.10;;;3.10;;
31584;SDS011;18191;51.288;12.390;2023-06-14T06:38:15;6.20;;;3.22;;
31584;SDS011;18191;51.288;12.390;2023-06-14T06:43:08;8.40;;;3.40;;
31584;SDS011;18191;51.288;12.390;2023-06-14T06:47:58;11.55;;;3.90;;
31584;SDS011;18191;51.288;12.390;2023-06-14T06:52:49;9.45;;;3.30;;
31584;SDS011;18191;51.288;12.390;2023-06-14T06:57:39;3.95;;;2.70;;
31584;SDS011;18191;51.288;12.390;2023-06-14T07:02:30;8.45;;;2.90;;
31584;SDS011;18191;51.288;12.390;2023-06-14T07:07:22;6.95;;;3.33;;
31584;SDS011;18191;51.288;12.390;2023-06-14T07:12:12;7.75;;;3.10;;
31584;SDS011;18191;51.288;12.390;2023-06-14T07:17:02;5.90;;;3.60;;
31584;SDS011;18191;51.288;12.390;2023-06-14T07:21:53;5.03;;;2.83;;
31584;SDS011;18191;51.288;12.390;2023-06-14T07:26:43;7.53;;;3.10;;
31584;SDS011;18191;51.288;12.390;2023-06-14T07:31:33;8.60;;;3.70;;
31584;SDS011;18191;51.288;12.390;2023-06-14T07:36:24;4.50;;;3.10;;
31584;SDS011;18191;51.288;12.390;2023-06-14T07:41:14;11.40;;;3.05;;
31584;SDS011;18191;51.288;12.390;2023-06-14T07:46:04;4.07;;;2.30;;
31584;SDS011;18191;51.288;12.390;2023-06-14T07:50:55;3.75;;;2.50;;
31584;SDS011;18191;51.288;12.390;2023-06-14T07:55:46;9.68;;;3.03;;
31584;SDS011;18191;51.288;12.390;2023-06-14T08:00:37;5.18;;;3.03;;
31584;SDS011;18191;51.288;12.390;2023-06-14T08:05:27;5.65;;;3.03;;
31584;SDS011;18191;51.288;12.390;2023-06-14T08:10:19;9.60;;;2.92;;
31584;SDS011;18191;51.288;12.390;2023-06-14T08:15:10;6.53;;;3.00;;
31584;SDS011;18191;51.288;12.390;2023-06-14T08:20:01;11.18;;;3.03;;
31584;SDS011;18191;51.288;12.390;2023-06-14T08:24:51;7.35;;;2.78;;
31584;SDS011;18191;51.288;12.390;2023-06-14T08:29:44;10.10;;;2.92;;
31584;SDS011;18191;51.288;12.390;2023-06-14T08:34:34;19.98;;;2.95;;
31584;SDS011;18191;51.288;12.390;2023-06-14T08:39:24;6.82;;;3.20;;
31584;SDS011;18191;51.288;12.390;2023-06-14T08:44:16;5.05;;;2.58;;
31584;SDS011;18191;51.288;12.390;2023-06-14T08:49:06;13.60;;;3.10;;
31584;SDS011;18191;51.288;12.390;2023-06-14T08:54:01;7.05;;;3.05;;
31584;SDS011;18191;51.288;12.390;2023-06-14T08:58:51;5.22;;;2.90;;
31584;SDS011;18191;51.288;12.390;2023-06-14T09:03:42;4.30;;;2.40;;
31584;SDS011;18191;51.288;12.390;2023-06-14T09:08:33;5.60;;;3.05;;
31584;SDS011;18191;51.288;12.390;2023-06-14T09:13:24;7.13;;;2.92;;
31584;SDS011;18191;51.288;12.390;2023-06-14T09:18:16;5.93;;;2.95;;
31584;SDS011;18191;51.288;12.390;2023-06-14T09:23:06;4.03;;;2.15;;
31584;SDS011;18191;51.288;12.390;2023-06-14T09:27:57;9.10;;;2.70;;
31584;SDS011;18191;51.288;12.390;2023-06-14T09:32:47;5.63;;;3.07;;
31584;SDS011;18191;51.288;12.390;2023-06-14T09:37:38;5.65;;;2.70;;
31584;SDS011;18191;51.288;12.390;2023-06-14T09:42:28;3.08;;;2.40;;
31584;SDS011;18191;51.288;12.390;2023-06-14T09:47:19;6.57;;;2.75;;
31584;SDS011;18191;51.288;12.390;2023-06-14T09:52:15;5.22;;;2.83;;
31584;SDS011;18191;51.288;12.390;2023-06-14T09:57:08;4.45;;;2.40;;
31584;SDS011;18191;51.288;12.390;2023-06-14T10:02:04;4.28;;;2.22;;
31584;SDS011;18191;51.288;12.390;2023-06-14T10:07:00;6.65;;;2.63;;
31584;SDS011;18191;51.288;12.390;2023-06-14T10:11:53;14.80;;;1.88;;
31584;SDS011;18191;51.288;12.390;2023-06-14T10:16:56;4.47;;;2.10;;
31584;SDS011;18191;51.288;12.390;2023-06-14T10:21:57;4.60;;;2.33;;
31584;SDS011;18191;51.288;12.390;2023-06-14T10:26:52;4.70;;;2.15;;
31584;SDS011;18191;51.288;12.390;2023-06-14T10:31:47;5.70;;;1.90;;
31584;SDS011;18191;51.288;12.390;2023-06-14T10:36:40;8.07;;;2.20;;
31584;SDS011;18191;51.288;12.390;2023-06-14T10:41:36;4.72;;;2.20;;
31584;SDS011;18191;51.288;12.390;2023-06-14T10:46:28;7.88;;;1.75;;
31584;SDS011;18191;51.288;12.390;2023-06-14T10:51:19;3.58;;;1.92;;
31584;SDS011;18191;51.288;12.390;2023-06-14T10:56:32;4.07;;;2.22;;
31584;SDS011;18191;51.288;12.390;2023-06-14T11:01:31;2.67;;;1.77;;
31584;SDS011;18191;51.288;12.390;2023-06-14T11:06:26;3.17;;;2.10;;
31584;SDS011;18191;51.288;12.390;2023-06-14T11:11:33;4.50;;;1.95;;
31584;SDS011;18191;51.288;12.390;2023-06-14T11:16:26;3.63;;;1.85;;
31584;SDS011;18191;51.288;12.390;2023-06-14T11:21:19;4.10;;;2.40;;
31584;SDS011;18191;51.288;12.390;2023-06-14T11:26:10;6.32;;;2.28;;
31584;SDS011;18191;51.288;12.390;2023-06-14T11:31:01;3.10;;;2.20;;
31584;SDS011;18191;51.288;12.390;2023-06-14T11:35:53;4.40;;;2.10;;
31584;SDS011;18191;51.288;12.390;2023-06-14T11:40:43;2.97;;;1.77;;
31584;SDS011;18191;51.288;12.390;2023-06-14T11:45:33;5.20;;;1.80;;
31584;SDS011;18191;51.288;12.390;2023-06-14T11:50:24;4.05;;;1.85;;
31584;SDS011;18191;51.288;12.390;2023-06-14T11:55:15;2.55;;;1.65;;
31584;SDS011;18191;51.288;12.390;2023-06-14T12:00:08;2.97;;;1.87;;
31584;SDS011;18191;51.288;12.390;2023-06-14T12:05:05;4.15;;;1.98;;
31584;SDS011;18191;51.288;12.390;2023-06-14T12:14:49;2.85;;;1.85;;
31584;SDS011;18191;51.288;12.390;2023-06-14T12:19:44;5.13;;;2.10;;
31584;SDS011;18191;51.288;12.390;2023-06-14T12:24:35;2.42;;;1.90;;
31584;SDS011;18191;51.288;12.390;2023-06-14T12:29:25;3.42;;;1.75;;
31584;SDS011;18191;51.288;12.390;2023-06-14T12:34:16;2.47;;;1.83;;
31584;SDS011;18191;51.288;12.390;2023-06-14T12:39:07;3.78;;;2.20;;
31584;SDS011;18191;51.288;12.390;2023-06-14T12:43:58;3.05;;;2.10;;
31584;SDS011;18191;51.288;12.390;2023-06-14T12:48:49;8.15;;;2.17;;
31584;SDS011;18191;51.288;12.390;2023-06-14T12:53:39;3.53;;;1.83;;
31584;SDS011;18191;51.288;12.390;2023-06-14T12:58:30;6.70;;;2.20;;
31584;SDS011;18191;51.288;12.390;2023-06-14T13:03:21;2.80;;;2.20;;
31584;SDS011;18191;51.288;12.390;2023-06-14T13:08:11;9.15;;;2.88;;
31584;SDS011;18191;51.288;12.390;2023-06-14T13:13:01;6.77;;;2.43;;
31584;SDS011;18191;51.288;12.390;2023-06-14T13:17:52;5.05;;;2.60;;
31584;SDS011;18191;51.288;12.390;2023-06-14T13:22:42;6.65;;;2.47;;
31584;SDS011;18191;51.288;12.390;2023-06-14T13:27:33;4.33;;;2.60;;
31584;SDS011;18191;51.288;12.390;2023-06-14T13:32:23;8.93;;;2.35;;
31584;SDS011;18191;51.288;12.390;2023-06-14T13:37:14;8.27;;;2.60;;
31584;SDS011;18191;51.288;12.390;2023-06-14T13:42:04;7.97;;;2.28;;
31584;SDS011;18191;51.288;12.390;2023-06-14T13:46:55;2.28;;;1.80;;
31584;SDS011;18191;51.288;12.390;2023-06-14T13:51:46;3.45;;;2.38;;
31584;SDS011;18191;51.288;12.390;2023-06-14T13:56:36;6.47;;;2.60;;
31584;SDS011;18191;51.288;12.390;2023-06-14T14:01:27;5.45;;;2.42;;
31584;SDS011;18191;51.288;12.390;2023-06-14T14:06:18;4.60;;;2.60;;
31584;SDS011;18191;51.288;12.390;2023-06-14T14:11:09;11.00;;;3.03;;
31584;SDS011;18191;51.288;12.390;2023-06-14T14:15:59;3.60;;;2.63;;
31584;SDS011;18191;51.288;12.390;2023-06-14T14:20:49;3.58;;;2.70;;
31584;SDS011;18191;51.288;12.390;2023-06-14T14:25:40;3.45;;;2.08;;
31584;SDS011;18191;51.288;12.390;2023-06-14T14:30:30;6.13;;;2.28;;
31584;SDS011;18191;51.288;12.390;2023-06-14T14:35:21;7.60;;;2.47;;
31584;SDS011;18191;51.288;12.390;2023-06-14T14:40:13;4.63;;;2.63;;
31584;SDS011;18191;51.288;12.390;2023-06-14T14:45:03;22.73;;;3.15;;
31584;SDS011;18191;51.288;12.390;2023-06-14T14:49:54;4.40;;;2.33;;
31584;SDS011;18191;51.288;12.390;2023-06-14T14:54:48;3.60;;;2.60;;
31584;SDS011;18191;51.288;12.390;2023-06-14T14:59:38;4.20;;;2.30;;
31584;SDS011;18191;51.288;12.390;2023-06-14T15:04:28;6.78;;;2.42;;
31584;SDS011;18191;51.288;12.390;2023-06-14T15:09:19;3.65;;;2.45;;
31584;SDS011;18191;51.288;12.390;2023-06-14T15:14:09;7.88;;;2.72;;
31584;SDS011;18191;51.288;12.390;2023-06-14T15:18:59;3.67;;;2.33;;
31584;SDS011;18191;51.288;12.390;2023-06-14T15:23:50;4.67;;;2.40;;
31584;SDS011;18191;51.288;12.390;2023-06-14T15:28:41;4.80;;;2.45;;
31584;SDS011;18191;51.288;12.390;2023-06-14T15:33:31;2.90;;;1.98;;
31584;SDS011;18191;51.288;12.390;2023-06-14T15:38:21;3.30;;;2.30;;
31584;SDS011;18191;51.288;12.390;2023-06-14T15:43:14;6.95;;;2.38;;
31584;SDS011;18191;51.288;12.390;2023-06-14T15:48:04;4.33;;;2.10;;
31584;SDS011;18191;51.288;12.390;2023-06-14T15:52:55;5.35;;;1.95;;
31584;SDS011;18191;51.288;12.390;2023-06-14T15:57:46;4.82;;;2.47;;
31584;SDS011;18191;51.288;12.390;2023-06-14T16:02:36;6.13;;;2.10;;
31584;SDS011;18191;51.288;12.390;2023-06-14T16:12:16;10.45;;;1.80;;
31584;SDS011;18191;51.288;12.390;2023-06-14T16:17:07;5.60;;;2.53;;
31584;SDS011;18191;51.288;12.390;2023-06-14T16:21:57;6.65;;;2.38;;
31584;SDS011;18191;51.288;12.390;2023-06-14T16:26:47;2.92;;;2.20;;
31584;SDS011;18191;51.288;12.390;2023-06-14T16:31:38;8.50;;;2.58;;
31584;SDS011;18191;51.288;12.390;2023-06-14T16:36:28;8.35;;;2.40;;
31584;SDS011;18191;51.288;12.390;2023-06-14T16:41:18;6.57;;;2.50;;
31584;SDS011;18191;51.288;12.390;2023-06-14T16:46:09;10.30;;;2.40;;
31584;SDS011;18191;51.288;12.390;2023-06-14T16:50:59;3.55;;;2.10;;
31584;SDS011;18191;51.288;12.390;2023-06-14T16:55:50;11.30;;;2.22;;
31584;SDS011;18191;51.288;12.390;2023-06-14T17:05:30;6.90;;;2.47;;
31584;SDS011;18191;51.288;12.390;2023-06-14T17:10:21;6.15;;;2.85;;
31584;SDS011;18191;51.288;12.390;2023-06-14T17:15:12;7.25;;;2.17;;
31584;SDS011;18191;51.288;12.390;2023-06-14T17:20:02;4.40;;;2.53;;
31584;SDS011;18191;51.288;12.390;2023-06-14T17:24:53;4.05;;;2.45;;
31584;SDS011;18191;51.288;12.390;2023-06-14T17:29:43;4.88;;;2.50;;
31584;SDS011;18191;51.288;12.390;2023-06-14T17:34:34;9.88;;;2.35;;
31584;SDS011;18191;51.288;12.390;2023-06-14T17:39:24;4.82;;;2.35;;
31584;SDS011;18191;51.288;12.390;2023-06-14T17:44:15;7.40;;;2.37;;
31584;SDS011;18191;51.288;12.390;2023-06-14T17:49:05;3.88;;;2.50;;
31584;SDS011;18191;51.288;12.390;2023-06-14T17:53:55;11.50;;;3.15;;
31584;SDS011;18191;51.288;12.390;2023-06-14T17:58:46;4.45;;;2.58;;
31584;SDS011;18191;51.288;12.390;2023-06-14T18:13:17;12.95;;;2.35;;
31584;SDS011;18191;51.288;12.390;2023-06-14T18:18:07;3.95;;;2.35;;
31584;SDS011;18191;51.288;12.390;2023-06-14T18:22:57;4.47;;;2.38;;
31584;SDS011;18191;51.288;12.390;2023-06-14T18:27:48;7.07;;;2.63;;
31584;SDS011;18191;51.288;12.390;2023-06-14T18:32:39;5.65;;;2.65;;
31584;SDS011;18191;51.288;12.390;2023-06-14T18:37:30;7.75;;;2.67;;
31584;SDS011;18191;51.288;12.390;2023-06-14T18:42:21;10.88;;;2.78;;
31584;SDS011;18191;51.288;12.390;2023-06-14T18:47:12;12.10;;;3.83;;
31584;SDS011;18191;51.288;12.390;2023-06-14T18:52:02;11.70;;;2.30;;
31584;SDS011;18191;51.288;12.390;2023-06-14T18:56:53;10.00;;;5.05;;
31584;SDS011;18191;51.288;12.390;2023-06-14T19:01:43;6.78;;;3.70;;
31584;SDS011;18191;51.288;12.390;2023-06-14T19:06:33;10.35;;;3.53;;
31584;SDS011;18191;51.288;12.390;2023-06-14T19:11:23;7.68;;;2.88;;
31584;SDS011;18191;51.288;12.390;2023-06-14T19:16:14;17.58;;;6.80;;
31584;SDS011;18191;51.288;12.390;2023-06-14T19:21:04;36.45;;;13.43;;
31584;SDS011;18191;51.288;12.390;2023-06-14T19:25:55;17.38;;;6.18;;
31584;SDS011;18191;51.288;12.390;2023-06-14T19:30:45;17.83;;;5.25;;
31584;SDS011;18191;51.288;12.390;2023-06-14T19:35:35;9.80;;;4.43;;
31584;SDS011;18191;51.288;12.390;2023-06-14T19:40:25;8.48;;;3.10;;
31584;SDS011;18191;51.288;12.390;2023-06-14T19:45:16;10.68;;;3.20;;
31584;SDS011;18191;51.288;12.390;2023-06-14T19:50:06;9.70;;;2.58;;
31584;SDS011;18191;51.288;12.390;2023-06-14T19:54:57;5.43;;;2.83;;
31584;SDS011;18191;51.288;12.390;2023-06-14T19:59:47;4.68;;;2.47;;
31584;SDS011;18191;51.288;12.390;2023-06-14T20:04:40;16.03;;;2.93;;
31584;SDS011;18191;51.288;12.390;2023-06-14T20:09:33;9.98;;;3.03;;
31584;SDS011;18191;51.288;12.390;2023-06-14T20:14:24;5.40;;;2.83;;
31584;SDS011;18191;51.288;12.390;2023-06-14T20:19:14;5.80;;;2.88;;
31584;SDS011;18191;51.288;12.390;2023-06-14T20:24:04;7.05;;;2.72;;
31584;SDS011;18191;51.288;12.390;2023-06-14T20:28:55;8.57;;;2.92;;
31584;SDS011;18191;51.288;12.390;2023-06-14T20:33:45;8.73;;;3.22;;
31584;SDS011;18191;51.288;12.390;2023-06-14T20:38:35;9.03;;;2.70;;
31584;SDS011;18191;51.288;12.390;2023-06-14T20:43:26;6.45;;;3.20;;
31584;SDS011;18191;51.288;12.390;2023-06-14T20:48:18;7.47;;;3.05;;
31584;SDS011;18191;51.288;12.390;2023-06-14T20:53:08;12.57;;;3.33;;
31584;SDS011;18191;51.288;12.390;2023-06-14T20:57:58;8.68;;;3.28;;
31584;SDS011;18191;51.288;12.390;2023-06-14T21:02:49;13.02;;;3.58;;
31584;SDS011;18191;51.288;12.390;2023-06-14T21:07:39;9.15;;;3.30;;
31584;SDS011;18191;51.288;12.390;2023-06-14T21:12:30;12.70;;;3.40;;
31584;SDS011;18191;51.288;12.390;2023-06-14T21:17:20;20.23;;;4.72;;
31584;SDS011;18191;51.288;12.390;2023-06-14T21:22:10;10.13;;;3.40;;
31584;SDS011;18191;51.288;12.390;2023-06-14T21:27:01;17.38;;;4.32;;
31584;SDS011;18191;51.288;12.390;2023-06-14T21:36:41;7.20;;;3.45;;
31584;SDS011;18191;51.288;12.390;2023-06-14T21:41:32;13.00;;;3.45;;
31584;SDS011;18191;51.288;12.390;2023-06-14T21:51:12;7.15;;;3.88;;
31584;SDS011;18191;51.288;12.390;2023-06-14T22:00:53;18.25;;;4.68;;
31584;SDS011;18191;51.288;12.390;2023-06-14T22:10:33;9.20;;;3.95;;
31584;SDS011;18191;51.288;12.390;2023-06-14T22:20:15;11.10;;;4.82;;
31584;SDS011;18191;51.288;12.390;2023-06-14T22:25:06;26.75;;;7.20;;
31584;SDS011;18191;51.288;12.390;2023-06-14T22:29:57;20.60;;;8.55;;
31584;SDS011;18191;51.288;12.390;2023-06-14T22:39:39;11.02;;;5.15;;
31584;SDS011;18191;51.288;12.390;2023-06-14T22:44:29;10.50;;;4.38;;
31584;SDS011;18191;51.288;12.390;2023-06-14T22:54:11;12.63;;;5.87;;
31584;SDS011;18191;51.288;12.390;2023-06-14T22:59:01;15.45;;;6.65;;
31584;SDS011;18191;51.288;12.390;2023-06-14T23:08:42;7.45;;;4.13;;
31584;SDS011;18191;51.288;12.390;2023-06-14T23:13:33;14.38;;;4.78;;
31584;SDS011;18191;51.288;12.390;2023-06-14T23:18:24;7.13;;;4.38;;
31584;SDS011;18191;51.288;12.390;2023-06-14T23:28:04;19.77;;;6.93;;
31584;SDS011;18191;51.288;12.390;2023-06-14T23:32:57;18.70;;;6.95;;
31584;SDS011;18191;51.288;12.390;2023-06-14T23:37:50;10.60;;;4.32;;
31584;SDS011;18191;51.288;12.390;2023-06-14T23:47:33;10.60;;;5.57;;
31584;SDS011;18191;51.288;12.390;2023-06-14T23:52:23;10.05;;;4.90;;
